sensor_id;sensor_type;location;lat;lon;timestamp;P1;durP1;ratioP1;P2;durP2;ratioP2
21780;SDS011;52576;53.614;9.894;2022-08-19T00:00:31;18.42;;;12.93;;
21780;SDS011;52576;53.614;9.894;2022-08-19T00:01:34;19.35;;;13.82;;
21780;SDS011;52576;53.614;9.894;2022-08-19T00:02:39;22.58;;;13.40;;
21780;SDS011;52576;53.614;9.894;2022-08-19T00:03:50;19.05;;;12.93;;
21780;SDS011;52576;53.614;9.894;2022-08-19T00:04:54;17.65;;;12.25;;
21780;SDS011;52576;53.614;9.894;2022-08-19T00:05:56;17.75;;;12.75;;
21780;SDS011;52576;53.614;9.894;2022-08-19T00:07:00;19.58;;;12.70;;
21780;SDS011;52576;53.614;9.894;2022-08-19T00:08:04;20.55;;;14.27;;
21780;SDS011;52576;53.614;9.894;2022-08-19T00:09:08;22.17;;;15.00;;
21780;SDS011;52576;53.614;9.894;2022-08-19T00:10:14;24.75;;;14.45;;
21780;SDS011;52576;53.614;9.894;2022-08-19T00:11:17;24.08;;;15.27;;
21780;SDS011;52576;53.614;9.894;2022-08-19T00:12:26;21.73;;;14.80;;
21780;SDS011;52576;53.614;9.894;2022-08-19T00:13:29;26.33;;;17.25;;
21780;SDS011;52576;53.614;9.894;2022-08-19T00:14:32;27.23;;;19.45;;
21780;SDS011;52576;53.614;9.894;2022-08-19T00:15:36;30.75;;;20.10;;
21780;SDS011;52576;53.614;9.894;2022-08-19T00:16:39;28.13;;;20.63;;
21780;SDS011;52576;53.614;9.894;2022-08-19T00:17:43;31.25;;;20.40;;
21780;SDS011;52576;53.614;9.894;2022-08-19T00:18:47;28.45;;;19.25;;
21780;SDS011;52576;53.614;9.894;2022-08-19T00:19:50;28.73;;;19.88;;
21780;SDS011;52576;53.614;9.894;2022-08-19T00:20:54;27.50;;;19.98;;
21780;SDS011;52576;53.614;9.894;2022-08-19T00:21:56;27.92;;;20.13;;
21780;SDS011;52576;53.614;9.894;2022-08-19T00:22:59;30.30;;;19.95;;
21780;SDS011;52576;53.614;9.894;2022-08-19T00:24:01;26.52;;;19.45;;
21780;SDS011;52576;53.614;9.894;2022-08-19T00:25:05;36.30;;;21.30;;
21780;SDS011;52576;53.614;9.894;2022-08-19T00:26:10;29.63;;;19.27;;
21780;SDS011;52576;53.614;9.894;2022-08-19T00:27:13;34.03;;;20.55;;
21780;SDS011;52576;53.614;9.894;2022-08-19T00:28:27;36.03;;;23.58;;
21780;SDS011;52576;53.614;9.894;2022-08-19T00:29:30;35.55;;;22.80;;
21780;SDS011;52576;53.614;9.894;2022-08-19T00:30:33;40.97;;;23.23;;
21780;SDS011;52576;53.614;9.894;2022-08-19T00:31:37;34.13;;;22.55;;
21780;SDS011;52576;53.614;9.894;2022-08-19T00:32:40;37.15;;;22.23;;
21780;SDS011;52576;53.614;9.894;2022-08-19T00:33:43;40.15;;;23.25;;
21780;SDS011;52576;53.614;9.894;2022-08-19T00:34:45;41.33;;;24.20;;
21780;SDS011;52576;53.614;9.894;2022-08-19T00:35:49;41.60;;;24.85;;
21780;SDS011;52576;53.614;9.894;2022-08-19T00:36:56;42.20;;;25.27;;
21780;SDS011;52576;53.614;9.894;2022-08-19T00:38:01;47.60;;;25.73;;
21780;SDS011;52576;53.614;9.894;2022-08-19T00:39:03;50.85;;;27.20;;
21780;SDS011;52576;53.614;9.894;2022-08-19T00:40:06;42.38;;;25.17;;
21780;SDS011;52576;53.614;9.894;2022-08-19T00:41:10;41.40;;;23.58;;
21780;SDS011;52576;53.614;9.894;2022-08-19T00:42:16;39.00;;;23.85;;
21780;SDS011;52576;53.614;9.894;2022-08-19T00:43:19;42.65;;;25.38;;
21780;SDS011;52576;53.614;9.894;2022-08-19T00:44:25;40.80;;;24.67;;
21780;SDS011;52576;53.614;9.894;2022-08-19T00:45:29;37.50;;;22.60;;
21780;SDS011;52576;53.614;9.894;2022-08-19T00:46:39;36.45;;;23.02;;
21780;SDS011;52576;53.614;9.894;2022-08-19T00:47:43;38.65;;;23.00;;
21780;SDS011;52576;53.614;9.894;2022-08-19T00:48:47;37.75;;;22.83;;
21780;SDS011;52576;53.614;9.894;2022-08-19T00:49:49;39.70;;;22.85;;
21780;SDS011;52576;53.614;9.894;2022-08-19T00:50:55;35.83;;;22.17;;
21780;SDS011;52576;53.614;9.894;2022-08-19T00:52:01;38.08;;;22.52;;
21780;SDS011;52576;53.614;9.894;2022-08-19T00:53:07;38.70;;;23.00;;
21780;SDS011;52576;53.614;9.894;2022-08-19T00:54:12;35.83;;;21.60;;
21780;SDS011;52576;53.614;9.894;2022-08-19T00:55:16;38.60;;;22.15;;
21780;SDS011;52576;53.614;9.894;2022-08-19T00:56:22;30.83;;;20.20;;
21780;SDS011;52576;53.614;9.894;2022-08-19T00:57:26;36.28;;;21.48;;
21780;SDS011;52576;53.614;9.894;2022-08-19T00:58:33;36.42;;;20.60;;
21780;SDS011;52576;53.614;9.894;2022-08-19T00:59:37;36.38;;;21.25;;
21780;SDS011;52576;53.614;9.894;2022-08-19T01:01:03;33.72;;;19.58;;
21780;SDS011;52576;53.614;9.894;2022-08-19T01:02:08;33.53;;;20.88;;
21780;SDS011;52576;53.614;9.894;2022-08-19T01:03:13;32.80;;;20.40;;
21780;SDS011;52576;53.614;9.894;2022-08-19T01:04:19;36.03;;;20.00;;
21780;SDS011;52576;53.614;9.894;2022-08-19T01:05:22;34.50;;;19.95;;
21780;SDS011;52576;53.614;9.894;2022-08-19T01:06:30;28.58;;;19.23;;
21780;SDS011;52576;53.614;9.894;2022-08-19T01:07:34;28.10;;;18.15;;
21780;SDS011;52576;53.614;9.894;2022-08-19T01:08:38;30.85;;;18.15;;
21780;SDS011;52576;53.614;9.894;2022-08-19T01:09:41;32.78;;;19.52;;
21780;SDS011;52576;53.614;9.894;2022-08-19T01:10:44;30.08;;;18.90;;
21780;SDS011;52576;53.614;9.894;2022-08-19T01:11:50;32.45;;;20.58;;
21780;SDS011;52576;53.614;9.894;2022-08-19T01:12:55;32.40;;;18.95;;
21780;SDS011;52576;53.614;9.894;2022-08-19T01:13:57;28.20;;;18.55;;
21780;SDS011;52576;53.614;9.894;2022-08-19T01:15:02;25.92;;;17.63;;
21780;SDS011;52576;53.614;9.894;2022-08-19T01:16:05;29.65;;;18.73;;
21780;SDS011;52576;53.614;9.894;2022-08-19T01:17:12;30.27;;;19.27;;
21780;SDS011;52576;53.614;9.894;2022-08-19T01:18:17;30.15;;;18.58;;
21780;SDS011;52576;53.614;9.894;2022-08-19T01:19:23;32.22;;;18.17;;
21780;SDS011;52576;53.614;9.894;2022-08-19T01:20:29;33.10;;;19.08;;
21780;SDS011;52576;53.614;9.894;2022-08-19T01:21:40;28.38;;;19.17;;
21780;SDS011;52576;53.614;9.894;2022-08-19T01:22:48;29.75;;;18.95;;
21780;SDS011;52576;53.614;9.894;2022-08-19T01:23:53;28.50;;;19.75;;
21780;SDS011;52576;53.614;9.894;2022-08-19T01:24:55;27.35;;;18.88;;
21780;SDS011;52576;53.614;9.894;2022-08-19T01:26:00;34.05;;;18.85;;
21780;SDS011;52576;53.614;9.894;2022-08-19T01:27:03;31.25;;;17.95;;
21780;SDS011;52576;53.614;9.894;2022-08-19T01:28:14;26.55;;;17.83;;
21780;SDS011;52576;53.614;9.894;2022-08-19T01:29:34;34.15;;;21.00;;
21780;SDS011;52576;53.614;9.894;2022-08-19T01:30:42;34.20;;;20.40;;
21780;SDS011;52576;53.614;9.894;2022-08-19T01:31:51;33.97;;;20.67;;
21780;SDS011;52576;53.614;9.894;2022-08-19T01:32:55;35.42;;;20.52;;
21780;SDS011;52576;53.614;9.894;2022-08-19T01:33:58;35.50;;;21.80;;
21780;SDS011;52576;53.614;9.894;2022-08-19T01:35:02;35.38;;;20.90;;
21780;SDS011;52576;53.614;9.894;2022-08-19T01:36:06;37.60;;;21.63;;
21780;SDS011;52576;53.614;9.894;2022-08-19T01:37:12;37.17;;;21.85;;
21780;SDS011;52576;53.614;9.894;2022-08-19T01:38:26;41.95;;;22.40;;
21780;SDS011;52576;53.614;9.894;2022-08-19T01:39:33;39.08;;;22.60;;
21780;SDS011;52576;53.614;9.894;2022-08-19T01:40:36;40.75;;;23.00;;
21780;SDS011;52576;53.614;9.894;2022-08-19T01:41:41;45.00;;;23.60;;
21780;SDS011;52576;53.614;9.894;2022-08-19T01:42:44;41.45;;;22.33;;
21780;SDS011;52576;53.614;9.894;2022-08-19T01:43:47;39.13;;;22.50;;
21780;SDS011;52576;53.614;9.894;2022-08-19T01:45:11;39.38;;;22.95;;
21780;SDS011;52576;53.614;9.894;2022-08-19T01:46:14;44.90;;;23.17;;
21780;SDS011;52576;53.614;9.894;2022-08-19T01:47:16;36.25;;;22.05;;
21780;SDS011;52576;53.614;9.894;2022-08-19T01:48:19;38.20;;;22.40;;
21780;SDS011;52576;53.614;9.894;2022-08-19T01:49:23;43.03;;;23.15;;
21780;SDS011;52576;53.614;9.894;2022-08-19T01:50:28;36.10;;;22.48;;
21780;SDS011;52576;53.614;9.894;2022-08-19T01:51:31;39.83;;;22.23;;
21780;SDS011;52576;53.614;9.894;2022-08-19T01:52:41;42.83;;;22.20;;
21780;SDS011;52576;53.614;9.894;2022-08-19T01:53:48;40.90;;;22.50;;
21780;SDS011;52576;53.614;9.894;2022-08-19T01:54:51;40.10;;;21.77;;
21780;SDS011;52576;53.614;9.894;2022-08-19T01:55:53;39.30;;;22.05;;
21780;SDS011;52576;53.614;9.894;2022-08-19T01:56:59;39.05;;;22.27;;
21780;SDS011;52576;53.614;9.894;2022-08-19T01:58:04;40.75;;;22.08;;
21780;SDS011;52576;53.614;9.894;2022-08-19T01:59:11;38.25;;;22.17;;
21780;SDS011;52576;53.614;9.894;2022-08-19T02:00:17;43.75;;;21.85;;
21780;SDS011;52576;53.614;9.894;2022-08-19T02:01:22;44.38;;;22.45;;
21780;SDS011;52576;53.614;9.894;2022-08-19T02:02:31;41.33;;;22.02;;
21780;SDS011;52576;53.614;9.894;2022-08-19T02:03:34;41.15;;;21.83;;
21780;SDS011;52576;53.614;9.894;2022-08-19T02:04:38;43.60;;;22.38;;
21780;SDS011;52576;53.614;9.894;2022-08-19T02:05:40;36.97;;;21.77;;
21780;SDS011;52576;53.614;9.894;2022-08-19T02:06:44;41.13;;;23.40;;
21780;SDS011;52576;53.614;9.894;2022-08-19T02:07:46;43.30;;;23.02;;
21780;SDS011;52576;53.614;9.894;2022-08-19T02:08:51;45.05;;;24.15;;
21780;SDS011;52576;53.614;9.894;2022-08-19T02:09:58;48.15;;;23.45;;
21780;SDS011;52576;53.614;9.894;2022-08-19T02:11:03;44.88;;;24.45;;
21780;SDS011;52576;53.614;9.894;2022-08-19T02:12:06;43.83;;;23.65;;
21780;SDS011;52576;53.614;9.894;2022-08-19T02:13:10;47.67;;;23.63;;
21780;SDS011;52576;53.614;9.894;2022-08-19T02:14:13;43.25;;;23.42;;
21780;SDS011;52576;53.614;9.894;2022-08-19T02:15:16;40.75;;;23.63;;
21780;SDS011;52576;53.614;9.894;2022-08-19T02:16:21;44.33;;;23.67;;
21780;SDS011;52576;53.614;9.894;2022-08-19T02:17:25;42.78;;;23.23;;
21780;SDS011;52576;53.614;9.894;2022-08-19T02:18:27;45.25;;;23.42;;
21780;SDS011;52576;53.614;9.894;2022-08-19T02:19:30;46.00;;;23.80;;
21780;SDS011;52576;53.614;9.894;2022-08-19T02:20:34;50.25;;;23.85;;
21780;SDS011;52576;53.614;9.894;2022-08-19T02:21:38;50.70;;;24.20;;
21780;SDS011;52576;53.614;9.894;2022-08-19T02:22:40;44.05;;;23.50;;
21780;SDS011;52576;53.614;9.894;2022-08-19T02:23:44;48.75;;;23.35;;
21780;SDS011;52576;53.614;9.894;2022-08-19T02:24:48;53.63;;;24.63;;
21780;SDS011;52576;53.614;9.894;2022-08-19T02:25:51;53.38;;;24.58;;
21780;SDS011;52576;53.614;9.894;2022-08-19T02:26:53;51.78;;;25.65;;
21780;SDS011;52576;53.614;9.894;2022-08-19T02:27:57;48.95;;;24.55;;
21780;SDS011;52576;53.614;9.894;2022-08-19T02:28:59;52.63;;;25.65;;
21780;SDS011;52576;53.614;9.894;2022-08-19T02:30:03;50.45;;;24.70;;
21780;SDS011;52576;53.614;9.894;2022-08-19T02:31:08;49.25;;;23.70;;
21780;SDS011;52576;53.614;9.894;2022-08-19T02:32:13;50.95;;;24.90;;
21780;SDS011;52576;53.614;9.894;2022-08-19T02:33:15;49.70;;;24.05;;
21780;SDS011;52576;53.614;9.894;2022-08-19T02:34:19;49.75;;;24.15;;
21780;SDS011;52576;53.614;9.894;2022-08-19T02:35:21;51.80;;;24.92;;
21780;SDS011;52576;53.614;9.894;2022-08-19T02:36:24;47.88;;;24.92;;
21780;SDS011;52576;53.614;9.894;2022-08-19T02:37:27;50.97;;;25.08;;
21780;SDS011;52576;53.614;9.894;2022-08-19T02:38:47;50.03;;;24.73;;
21780;SDS011;52576;53.614;9.894;2022-08-19T02:39:57;55.20;;;26.63;;
21780;SDS011;52576;53.614;9.894;2022-08-19T02:41:00;54.40;;;25.48;;
21780;SDS011;52576;53.614;9.894;2022-08-19T02:42:05;54.83;;;25.80;;
21780;SDS011;52576;53.614;9.894;2022-08-19T02:43:08;57.38;;;26.98;;
21780;SDS011;52576;53.614;9.894;2022-08-19T02:44:11;61.95;;;27.30;;
21780;SDS011;52576;53.614;9.894;2022-08-19T02:45:32;72.22;;;27.25;;
21780;SDS011;52576;53.614;9.894;2022-08-19T02:46:34;63.60;;;29.20;;
21780;SDS011;52576;53.614;9.894;2022-08-19T02:47:38;65.40;;;28.77;;
21780;SDS011;52576;53.614;9.894;2022-08-19T02:48:40;71.55;;;29.65;;
21780;SDS011;52576;53.614;9.894;2022-08-19T02:49:43;70.95;;;29.98;;
21780;SDS011;52576;53.614;9.894;2022-08-19T02:50:46;72.07;;;29.40;;
21780;SDS011;52576;53.614;9.894;2022-08-19T02:51:53;75.55;;;29.60;;
21780;SDS011;52576;53.614;9.894;2022-08-19T02:52:56;73.35;;;31.02;;
21780;SDS011;52576;53.614;9.894;2022-08-19T02:53:59;74.15;;;31.55;;
21780;SDS011;52576;53.614;9.894;2022-08-19T02:55:03;77.43;;;32.05;;
21780;SDS011;52576;53.614;9.894;2022-08-19T02:56:07;89.63;;;32.45;;
21780;SDS011;52576;53.614;9.894;2022-08-19T02:57:10;81.68;;;31.48;;
21780;SDS011;52576;53.614;9.894;2022-08-19T02:58:13;80.78;;;33.78;;
21780;SDS011;52576;53.614;9.894;2022-08-19T02:59:16;81.13;;;33.00;;
21780;SDS011;52576;53.614;9.894;2022-08-19T03:00:23;78.90;;;31.63;;
21780;SDS011;52576;53.614;9.894;2022-08-19T03:01:26;86.65;;;34.10;;
21780;SDS011;52576;53.614;9.894;2022-08-19T03:02:33;83.25;;;33.33;;
21780;SDS011;52576;53.614;9.894;2022-08-19T03:03:35;81.72;;;32.38;;
21780;SDS011;52576;53.614;9.894;2022-08-19T03:04:38;81.35;;;30.88;;
21780;SDS011;52576;53.614;9.894;2022-08-19T03:05:41;78.15;;;31.98;;
21780;SDS011;52576;53.614;9.894;2022-08-19T03:06:56;76.60;;;29.90;;
21780;SDS011;52576;53.614;9.894;2022-08-19T03:08:11;74.63;;;29.90;;
21780;SDS011;52576;53.614;9.894;2022-08-19T03:09:16;75.53;;;29.88;;
21780;SDS011;52576;53.614;9.894;2022-08-19T03:10:20;77.03;;;30.25;;
21780;SDS011;52576;53.614;9.894;2022-08-19T03:11:25;74.45;;;30.75;;
21780;SDS011;52576;53.614;9.894;2022-08-19T03:12:30;71.72;;;28.90;;
21780;SDS011;52576;53.614;9.894;2022-08-19T03:13:33;78.28;;;29.58;;
21780;SDS011;52576;53.614;9.894;2022-08-19T03:14:37;70.70;;;27.67;;
21780;SDS011;52576;53.614;9.894;2022-08-19T03:15:40;70.30;;;27.90;;
21780;SDS011;52576;53.614;9.894;2022-08-19T03:16:45;73.18;;;27.38;;
21780;SDS011;52576;53.614;9.894;2022-08-19T03:17:48;64.25;;;26.30;;
21780;SDS011;52576;53.614;9.894;2022-08-19T03:18:52;58.67;;;25.83;;
21780;SDS011;52576;53.614;9.894;2022-08-19T03:19:55;59.85;;;25.88;;
21780;SDS011;52576;53.614;9.894;2022-08-19T03:20:59;66.20;;;25.85;;
21780;SDS011;52576;53.614;9.894;2022-08-19T03:22:02;59.47;;;24.73;;
21780;SDS011;52576;53.614;9.894;2022-08-19T03:23:05;61.05;;;26.20;;
21780;SDS011;52576;53.614;9.894;2022-08-19T03:24:08;69.15;;;26.80;;
21780;SDS011;52576;53.614;9.894;2022-08-19T03:25:11;70.82;;;25.90;;
21780;SDS011;52576;53.614;9.894;2022-08-19T03:26:15;63.25;;;26.52;;
21780;SDS011;52576;53.614;9.894;2022-08-19T03:27:18;61.55;;;25.65;;
21780;SDS011;52576;53.614;9.894;2022-08-19T03:28:21;58.83;;;25.15;;
21780;SDS011;52576;53.614;9.894;2022-08-19T03:29:24;56.97;;;24.52;;
21780;SDS011;52576;53.614;9.894;2022-08-19T03:30:31;57.42;;;24.17;;
21780;SDS011;52576;53.614;9.894;2022-08-19T03:31:34;52.25;;;24.17;;
21780;SDS011;52576;53.614;9.894;2022-08-19T03:32:52;62.13;;;23.90;;
21780;SDS011;52576;53.614;9.894;2022-08-19T03:33:57;52.85;;;25.60;;
21780;SDS011;52576;53.614;9.894;2022-08-19T03:35:00;54.20;;;23.83;;
21780;SDS011;52576;53.614;9.894;2022-08-19T03:36:05;55.05;;;25.13;;
21780;SDS011;52576;53.614;9.894;2022-08-19T03:37:11;54.70;;;22.67;;
21780;SDS011;52576;53.614;9.894;2022-08-19T03:38:13;56.75;;;24.20;;
21780;SDS011;52576;53.614;9.894;2022-08-19T03:39:17;56.15;;;24.30;;
21780;SDS011;52576;53.614;9.894;2022-08-19T03:40:19;59.65;;;24.05;;
21780;SDS011;52576;53.614;9.894;2022-08-19T03:41:24;61.90;;;23.75;;
21780;SDS011;52576;53.614;9.894;2022-08-19T03:42:46;59.05;;;24.48;;
21780;SDS011;52576;53.614;9.894;2022-08-19T03:43:50;60.33;;;24.88;;
21780;SDS011;52576;53.614;9.894;2022-08-19T03:44:54;57.00;;;25.00;;
21780;SDS011;52576;53.614;9.894;2022-08-19T03:46:01;66.07;;;24.98;;
21780;SDS011;52576;53.614;9.894;2022-08-19T03:47:05;60.88;;;25.58;;
21780;SDS011;52576;53.614;9.894;2022-08-19T03:48:08;60.08;;;24.63;;
21780;SDS011;52576;53.614;9.894;2022-08-19T03:49:11;65.07;;;25.65;;
21780;SDS011;52576;53.614;9.894;2022-08-19T03:50:15;63.83;;;25.17;;
21780;SDS011;52576;53.614;9.894;2022-08-19T03:51:18;63.58;;;25.05;;
21780;SDS011;52576;53.614;9.894;2022-08-19T03:52:31;64.45;;;26.67;;
21780;SDS011;52576;53.614;9.894;2022-08-19T03:53:35;65.43;;;26.38;;
21780;SDS011;52576;53.614;9.894;2022-08-19T03:54:37;58.47;;;24.48;;
21780;SDS011;52576;53.614;9.894;2022-08-19T03:55:41;67.70;;;26.25;;
21780;SDS011;52576;53.614;9.894;2022-08-19T03:56:45;69.75;;;26.92;;
21780;SDS011;52576;53.614;9.894;2022-08-19T03:57:50;67.65;;;26.73;;
21780;SDS011;52576;53.614;9.894;2022-08-19T03:58:55;73.20;;;28.30;;
21780;SDS011;52576;53.614;9.894;2022-08-19T03:59:59;72.20;;;29.23;;
21780;SDS011;52576;53.614;9.894;2022-08-19T04:01:15;74.95;;;28.27;;
21780;SDS011;52576;53.614;9.894;2022-08-19T04:02:19;75.13;;;30.02;;
21780;SDS011;52576;53.614;9.894;2022-08-19T04:03:23;65.80;;;27.85;;
21780;SDS011;52576;53.614;9.894;2022-08-19T04:04:26;71.70;;;30.45;;
21780;SDS011;52576;53.614;9.894;2022-08-19T04:05:32;71.15;;;28.67;;
21780;SDS011;52576;53.614;9.894;2022-08-19T04:06:35;82.82;;;30.35;;
21780;SDS011;52576;53.614;9.894;2022-08-19T04:07:40;69.85;;;28.70;;
21780;SDS011;52576;53.614;9.894;2022-08-19T04:08:43;74.13;;;31.17;;
21780;SDS011;52576;53.614;9.894;2022-08-19T04:09:48;74.80;;;31.13;;
21780;SDS011;52576;53.614;9.894;2022-08-19T04:10:53;74.65;;;30.85;;
21780;SDS011;52576;53.614;9.894;2022-08-19T04:11:57;85.00;;;32.58;;
21780;SDS011;52576;53.614;9.894;2022-08-19T04:13:00;84.13;;;33.20;;
21780;SDS011;52576;53.614;9.894;2022-08-19T04:14:03;81.22;;;32.67;;
21780;SDS011;52576;53.614;9.894;2022-08-19T04:15:06;76.35;;;32.10;;
21780;SDS011;52576;53.614;9.894;2022-08-19T04:16:10;74.82;;;32.13;;
21780;SDS011;52576;53.614;9.894;2022-08-19T04:17:12;81.07;;;33.50;;
21780;SDS011;52576;53.614;9.894;2022-08-19T04:18:16;74.85;;;33.80;;
21780;SDS011;52576;53.614;9.894;2022-08-19T04:19:19;80.38;;;33.72;;
21780;SDS011;52576;53.614;9.894;2022-08-19T04:20:22;78.18;;;33.40;;
21780;SDS011;52576;53.614;9.894;2022-08-19T04:21:25;72.30;;;34.03;;
21780;SDS011;52576;53.614;9.894;2022-08-19T04:22:29;86.80;;;34.83;;
21780;SDS011;52576;53.614;9.894;2022-08-19T04:23:31;81.57;;;35.05;;
21780;SDS011;52576;53.614;9.894;2022-08-19T04:24:35;82.13;;;35.75;;
21780;SDS011;52576;53.614;9.894;2022-08-19T04:25:38;80.50;;;35.53;;
21780;SDS011;52576;53.614;9.894;2022-08-19T04:26:42;75.63;;;34.28;;
21780;SDS011;52576;53.614;9.894;2022-08-19T04:27:46;78.50;;;34.33;;
21780;SDS011;52576;53.614;9.894;2022-08-19T04:28:50;91.57;;;36.03;;
21780;SDS011;52576;53.614;9.894;2022-08-19T04:29:53;71.45;;;32.50;;
21780;SDS011;52576;53.614;9.894;2022-08-19T04:30:56;74.85;;;34.17;;
21780;SDS011;52576;53.614;9.894;2022-08-19T04:31:59;73.38;;;33.60;;
21780;SDS011;52576;53.614;9.894;2022-08-19T04:34:14;71.93;;;33.78;;
21780;SDS011;52576;53.614;9.894;2022-08-19T04:35:19;83.82;;;34.25;;
21780;SDS011;52576;53.614;9.894;2022-08-19T04:36:26;77.20;;;34.28;;
21780;SDS011;52576;53.614;9.894;2022-08-19T04:37:30;87.57;;;36.30;;
21780;SDS011;52576;53.614;9.894;2022-08-19T04:38:36;77.55;;;34.83;;
21780;SDS011;52576;53.614;9.894;2022-08-19T04:39:39;69.55;;;35.03;;
21780;SDS011;52576;53.614;9.894;2022-08-19T04:41:03;81.15;;;34.53;;
21780;SDS011;52576;53.614;9.894;2022-08-19T04:42:24;79.05;;;34.10;;
21780;SDS011;52576;53.614;9.894;2022-08-19T04:43:42;75.85;;;35.25;;
21780;SDS011;52576;53.614;9.894;2022-08-19T04:44:50;83.75;;;34.33;;
21780;SDS011;52576;53.614;9.894;2022-08-19T04:45:52;68.78;;;34.20;;
21780;SDS011;52576;53.614;9.894;2022-08-19T04:47:01;65.65;;;33.47;;
21780;SDS011;52576;53.614;9.894;2022-08-19T04:48:12;69.75;;;30.42;;
21780;SDS011;52576;53.614;9.894;2022-08-19T04:49:28;61.15;;;28.70;;
21780;SDS011;52576;53.614;9.894;2022-08-19T04:50:31;53.65;;;26.63;;
21780;SDS011;52576;53.614;9.894;2022-08-19T04:51:36;54.47;;;27.23;;
21780;SDS011;52576;53.614;9.894;2022-08-19T04:52:42;44.35;;;25.45;;
21780;SDS011;52576;53.614;9.894;2022-08-19T04:53:44;49.60;;;26.05;;
21780;SDS011;52576;53.614;9.894;2022-08-19T04:54:48;48.78;;;25.45;;
21780;SDS011;52576;53.614;9.894;2022-08-19T04:55:50;38.75;;;23.23;;
21780;SDS011;52576;53.614;9.894;2022-08-19T04:56:54;39.58;;;22.60;;
21780;SDS011;52576;53.614;9.894;2022-08-19T04:57:56;42.35;;;22.27;;
21780;SDS011;52576;53.614;9.894;2022-08-19T04:59:02;40.22;;;22.38;;
21780;SDS011;52576;53.614;9.894;2022-08-19T05:00:05;41.35;;;21.50;;
21780;SDS011;52576;53.614;9.894;2022-08-19T05:01:11;34.72;;;20.67;;
21780;SDS011;52576;53.614;9.894;2022-08-19T05:02:14;36.47;;;20.27;;
21780;SDS011;52576;53.614;9.894;2022-08-19T05:03:18;32.88;;;19.58;;
21780;SDS011;52576;53.614;9.894;2022-08-19T05:04:20;40.08;;;20.60;;
21780;SDS011;52576;53.614;9.894;2022-08-19T05:05:24;36.78;;;21.00;;
21780;SDS011;52576;53.614;9.894;2022-08-19T05:06:26;39.35;;;20.08;;
21780;SDS011;52576;53.614;9.894;2022-08-19T05:07:35;34.85;;;20.00;;
21780;SDS011;52576;53.614;9.894;2022-08-19T05:08:38;31.42;;;20.13;;
21780;SDS011;52576;53.614;9.894;2022-08-19T05:09:44;30.45;;;19.10;;
21780;SDS011;52576;53.614;9.894;2022-08-19T05:10:59;34.08;;;19.30;;
21780;SDS011;52576;53.614;9.894;2022-08-19T05:12:01;33.97;;;20.10;;
21780;SDS011;52576;53.614;9.894;2022-08-19T05:13:05;30.40;;;19.05;;
21780;SDS011;52576;53.614;9.894;2022-08-19T05:14:09;39.22;;;20.15;;
21780;SDS011;52576;53.614;9.894;2022-08-19T05:15:13;34.85;;;19.35;;
21780;SDS011;52576;53.614;9.894;2022-08-19T05:16:16;33.65;;;19.50;;
21780;SDS011;52576;53.614;9.894;2022-08-19T05:17:22;31.45;;;19.63;;
21780;SDS011;52576;53.614;9.894;2022-08-19T05:18:29;30.10;;;19.13;;
21780;SDS011;52576;53.614;9.894;2022-08-19T05:19:50;33.60;;;19.08;;
21780;SDS011;52576;53.614;9.894;2022-08-19T05:22:33;35.85;;;18.85;;
21780;SDS011;52576;53.614;9.894;2022-08-19T05:23:37;36.35;;;18.23;;
21780;SDS011;52576;53.614;9.894;2022-08-19T05:24:39;31.88;;;18.23;;
21780;SDS011;52576;53.614;9.894;2022-08-19T05:26:02;27.88;;;17.75;;
21780;SDS011;52576;53.614;9.894;2022-08-19T05:27:06;29.38;;;18.45;;
21780;SDS011;52576;53.614;9.894;2022-08-19T05:28:08;34.03;;;18.40;;
21780;SDS011;52576;53.614;9.894;2022-08-19T05:29:13;37.15;;;18.33;;
21780;SDS011;52576;53.614;9.894;2022-08-19T05:30:17;31.63;;;18.02;;
21780;SDS011;52576;53.614;9.894;2022-08-19T05:31:40;39.00;;;17.77;;
21780;SDS011;52576;53.614;9.894;2022-08-19T05:32:44;32.97;;;18.02;;
21780;SDS011;52576;53.614;9.894;2022-08-19T05:33:47;30.98;;;18.13;;
21780;SDS011;52576;53.614;9.894;2022-08-19T05:34:50;41.28;;;18.40;;
21780;SDS011;52576;53.614;9.894;2022-08-19T05:35:53;28.83;;;16.60;;
21780;SDS011;52576;53.614;9.894;2022-08-19T05:36:56;30.42;;;17.50;;
21780;SDS011;52576;53.614;9.894;2022-08-19T05:38:00;34.85;;;18.08;;
21780;SDS011;52576;53.614;9.894;2022-08-19T05:39:03;28.58;;;17.48;;
21780;SDS011;52576;53.614;9.894;2022-08-19T05:40:07;32.97;;;17.30;;
21780;SDS011;52576;53.614;9.894;2022-08-19T05:41:11;36.47;;;17.67;;
21780;SDS011;52576;53.614;9.894;2022-08-19T05:42:15;27.13;;;16.67;;
21780;SDS011;52576;53.614;9.894;2022-08-19T05:43:18;29.88;;;16.95;;
21780;SDS011;52576;53.614;9.894;2022-08-19T05:44:22;30.05;;;17.83;;
21780;SDS011;52576;53.614;9.894;2022-08-19T05:45:26;39.67;;;18.27;;
21780;SDS011;52576;53.614;9.894;2022-08-19T05:46:29;29.75;;;17.73;;
21780;SDS011;52576;53.614;9.894;2022-08-19T05:47:31;29.10;;;17.40;;
21780;SDS011;52576;53.614;9.894;2022-08-19T05:48:35;31.65;;;18.10;;
21780;SDS011;52576;53.614;9.894;2022-08-19T05:49:37;35.58;;;18.30;;
21780;SDS011;52576;53.614;9.894;2022-08-19T05:50:41;27.50;;;18.67;;
21780;SDS011;52576;53.614;9.894;2022-08-19T05:51:43;34.38;;;18.50;;
21780;SDS011;52576;53.614;9.894;2022-08-19T05:52:47;30.80;;;17.95;;
21780;SDS011;52576;53.614;9.894;2022-08-19T05:53:52;34.00;;;18.15;;
21780;SDS011;52576;53.614;9.894;2022-08-19T05:54:54;33.78;;;18.20;;
21780;SDS011;52576;53.614;9.894;2022-08-19T05:55:57;31.33;;;18.70;;
21780;SDS011;52576;53.614;9.894;2022-08-19T05:57:00;39.03;;;19.60;;
21780;SDS011;52576;53.614;9.894;2022-08-19T05:58:04;38.58;;;19.48;;
21780;SDS011;52576;53.614;9.894;2022-08-19T05:59:09;33.53;;;18.65;;
21780;SDS011;52576;53.614;9.894;2022-08-19T06:00:15;33.08;;;18.40;;
21780;SDS011;52576;53.614;9.894;2022-08-19T06:01:25;38.15;;;19.35;;
21780;SDS011;52576;53.614;9.894;2022-08-19T06:02:28;32.08;;;19.48;;
21780;SDS011;52576;53.614;9.894;2022-08-19T06:03:32;34.53;;;18.25;;
21780;SDS011;52576;53.614;9.894;2022-08-19T06:04:35;29.77;;;18.15;;
21780;SDS011;52576;53.614;9.894;2022-08-19T06:05:39;30.13;;;18.75;;
21780;SDS011;52576;53.614;9.894;2022-08-19T06:06:52;31.05;;;17.60;;
21780;SDS011;52576;53.614;9.894;2022-08-19T06:07:57;37.88;;;18.73;;
21780;SDS011;52576;53.614;9.894;2022-08-19T06:09:00;37.47;;;18.48;;
21780;SDS011;52576;53.614;9.894;2022-08-19T06:10:04;30.88;;;18.52;;
21780;SDS011;52576;53.614;9.894;2022-08-19T06:11:13;31.83;;;17.98;;
21780;SDS011;52576;53.614;9.894;2022-08-19T06:12:18;32.80;;;18.15;;
21780;SDS011;52576;53.614;9.894;2022-08-19T06:13:21;30.80;;;18.88;;
21780;SDS011;52576;53.614;9.894;2022-08-19T06:14:26;36.33;;;20.02;;
21780;SDS011;52576;53.614;9.894;2022-08-19T06:15:35;34.92;;;18.58;;
21780;SDS011;52576;53.614;9.894;2022-08-19T06:16:38;30.25;;;18.20;;
21780;SDS011;52576;53.614;9.894;2022-08-19T06:17:43;35.58;;;19.33;;
21780;SDS011;52576;53.614;9.894;2022-08-19T06:18:46;30.25;;;18.30;;
21780;SDS011;52576;53.614;9.894;2022-08-19T06:19:49;35.58;;;19.10;;
21780;SDS011;52576;53.614;9.894;2022-08-19T06:20:52;30.25;;;18.92;;
21780;SDS011;52576;53.614;9.894;2022-08-19T06:21:57;36.53;;;18.75;;
21780;SDS011;52576;53.614;9.894;2022-08-19T06:23:02;32.88;;;17.75;;